createdAt,value
2022-08-06T00:01:25.191Z,69.56
2022-08-06T00:03:51.941Z,69.27
2022-08-06T00:06:18.326Z,68.84
2022-08-06T00:08:47.343Z,68.71
2022-08-06T00:11:14.365Z,68.81
2022-08-06T00:13:42.018Z,68.99
2022-08-06T00:16:36.415Z,69.22
2022-08-06T00:18:56.296Z,69.15
2022-08-06T00:21:41.007Z,69.49
2022-08-06T00:24:12.694Z,69.38
2022-08-06T00:27:05.426Z,69.90
2022-08-06T00:29:44.142Z,69.87
2022-08-06T00:32:14.313Z,69.69
2022-08-06T00:34:43.340Z,69.84
2022-08-06T00:37:18.967Z,70.10
2022-08-06T00:39:45.893Z,69.73
2022-08-06T00:42:13.461Z,70.96
2022-08-06T00:44:43.785Z,70.53
2022-08-06T00:47:23.230Z,70.54
2022-08-06T00:50:02.323Z,70.69
2022-08-06T00:52:29.200Z,70.66
2022-08-06T00:54:55.635Z,70.54
2022-08-06T00:57:23.547Z,70.37
2022-08-06T00:59:53.649Z,70.94
2022-08-06T01:02:20.258Z,70.89
2022-08-06T01:04:50.587Z,71.31
2022-08-06T01:07:17.344Z,70.94
2022-08-06T01:09:58.053Z,70.31
2022-08-06T01:12:31.936Z,69.62
2022-08-06T01:15:02.851Z,70.32
2022-08-06T01:17:38.777Z,70.82
2022-08-06T01:21:57.611Z,70.66
2022-08-06T01:23:44.803Z,70.43
2022-08-06T01:26:32.782Z,70.27
2022-08-06T01:29:05.541Z,69.77
2022-08-06T01:31:52.906Z,69.60
2022-08-06T01:34:35.513Z,69.82
2022-08-06T01:37:15.967Z,70.48
2022-08-06T01:40:01.599Z,70.67
2022-08-06T01:42:35.005Z,71.00
2022-08-06T01:45:06.027Z,70.17
2022-08-06T01:47:53.971Z,70.07
2022-08-06T01:50:28.161Z,69.88
2022-08-06T01:52:59.948Z,69.08
2022-08-06T01:55:56.360Z,69.60
2022-08-06T01:58:29.407Z,69.69
2022-08-06T02:01:01.257Z,69.85
2022-08-06T02:03:50.333Z,70.06
2022-08-06T02:06:32.718Z,70.10
2022-08-06T02:09:22.868Z,70.17
2022-08-06T02:12:17.271Z,70.31
2022-08-06T02:14:52.526Z,70.41
2022-08-06T02:17:53.809Z,71.03
2022-08-06T02:20:11.738Z,71.07
2022-08-06T02:22:42.279Z,71.19
2022-08-06T02:25:15.134Z,71.13
2022-08-06T02:27:53.612Z,71.05
2022-08-06T02:30:34.915Z,71.20
2022-08-06T02:33:05.322Z,71.11
2022-08-06T02:35:37.417Z,70.92
2022-08-06T02:38:10.719Z,71.27
2022-08-06T02:40:54.061Z,71.20
2022-08-06T02:43:28.771Z,70.66
2022-08-06T02:46:11.257Z,70.84
2022-08-06T02:48:50.433Z,71.16
2022-08-06T02:51:43.722Z,71.40
2022-08-06T02:54:13.088Z,71.38
2022-08-06T02:56:45.375Z,71.05
2022-08-06T02:59:16.321Z,71.42
2022-08-06T03:01:50.892Z,71.22
2022-08-06T03:04:20.118Z,70.75
2022-08-06T03:07:03.535Z,71.12
2022-08-06T03:09:34.181Z,70.97
2022-08-06T03:12:09.592Z,70.94
2022-08-06T03:15:06.907Z,70.87
2022-08-06T03:17:41.575Z,70.98
2022-08-06T03:20:17.282Z,70.68
2022-08-06T03:22:47.752Z,70.48
2022-08-06T03:25:16.787Z,69.91
2022-08-06T03:27:45.577Z,70.13
2022-08-06T03:30:30.446Z,70.38
2022-08-06T03:33:07.390Z,70.22
2022-08-06T03:35:51.136Z,70.67
2022-08-06T03:38:19.720Z,71.01
2022-08-06T03:40:49.614Z,71.03
2022-08-06T03:43:27.915Z,70.91
2022-08-06T03:46:01.025Z,70.46
2022-08-06T03:48:35.783Z,70.27
2022-08-06T03:51:11.529Z,70.62
2022-08-06T03:53:42.369Z,70.86
2022-08-06T03:56:17.522Z,71.50
2022-08-06T03:58:45.491Z,70.98
2022-08-06T04:01:20.117Z,71.29
2022-08-06T04:03:49.712Z,71.19
2022-08-06T04:06:20.392Z,71.16
2022-08-06T04:08:49.044Z,71.53
2022-08-06T04:12:13.283Z,71.58
2022-08-06T04:14:08.423Z,71.72
2022-08-06T04:16:37.294Z,71.78
2022-08-06T04:19:15.587Z,71.30
2022-08-06T04:22:59.926Z,71.77
2022-08-06T04:24:30.580Z,71.66
2022-08-06T04:27:05.384Z,70.94
2022-08-06T04:29:56.270Z,71.10
2022-08-06T04:32:29.287Z,71.49
2022-08-06T04:36:07.974Z,71.58
2022-08-06T04:37:48.084Z,71.25
2022-08-06T04:40:20.136Z,71.19
2022-08-06T04:43:00.994Z,71.25
2022-08-06T04:46:15.939Z,71.38
2022-08-06T04:48:16.868Z,71.15
2022-08-06T04:50:47.701Z,70.83
2022-08-06T04:53:30.142Z,70.94
2022-08-06T04:56:04.331Z,70.66
2022-08-06T04:58:33.069Z,70.71
2022-08-06T05:01:06.903Z,70.82
2022-08-06T05:04:07.374Z,71.23
2022-08-06T05:06:33.187Z,71.21
2022-08-06T05:09:05.371Z,70.99
2022-08-06T05:11:57.640Z,70.94
2022-08-06T05:14:33.033Z,70.93
2022-08-06T05:17:03.090Z,70.35
2022-08-06T05:19:39.521Z,70.06
2022-08-06T05:22:12.297Z,70.46
2022-08-06T05:25:00.618Z,70.65
2022-08-06T05:27:54.521Z,70.78
2022-08-06T05:30:16.132Z,70.99
2022-08-06T05:32:50.845Z,70.42
2022-08-06T05:35:23.384Z,70.15
2022-08-06T05:38:07.117Z,69.98
2022-08-06T05:40:52.684Z,69.75
2022-08-06T05:43:20.749Z,69.92
2022-08-06T05:45:49.128Z,69.45
2022-08-06T05:48:29.142Z,69.37
2022-08-06T05:51:08.101Z,69.53
2022-08-06T05:54:02.577Z,69.22
2022-08-06T05:56:38.512Z,69.03
2022-08-06T05:59:37.389Z,68.78
2022-08-06T06:02:07.169Z,68.88
2022-08-06T06:04:34.179Z,68.53
2022-08-06T06:07:04.696Z,68.13
2022-08-06T06:09:57.126Z,67.86
2022-08-06T06:12:21.377Z,67.66
2022-08-06T06:14:58.518Z,68.40
2022-08-06T06:17:51.072Z,68.14
2022-08-06T06:21:04.013Z,67.73
2022-08-06T06:23:39.846Z,67.78
2022-08-06T06:26:33.454Z,67.47
2022-08-06T06:30:01.957Z,67.21
2022-08-06T06:32:31.039Z,66.34
2022-08-06T06:35:13.407Z,66.29
2022-08-06T06:37:51.986Z,66.22
2022-08-06T06:40:24.550Z,65.19
2022-08-06T06:43:17.900Z,64.72
2022-08-06T06:46:10.033Z,64.54
2022-08-06T06:49:02.895Z,63.85
2022-08-06T06:51:56.527Z,63.23
2022-08-06T06:54:35.659Z,62.66
2022-08-06T06:57:08.975Z,60.92
2022-08-06T07:00:04.484Z,60.48
2022-08-06T07:02:29.419Z,59.42
2022-08-06T07:04:59.616Z,58.80
2022-08-06T07:07:27.825Z,57.80
2022-08-06T07:10:00.141Z,56.76
2022-08-06T07:12:34.111Z,55.84
2022-08-06T07:15:02.641Z,56.24
2022-08-06T07:17:43.831Z,54.43
2022-08-06T07:20:17.329Z,54.65
2022-08-06T07:24:08.128Z,54.76
2022-08-06T07:25:39.911Z,55.60
2022-08-06T07:28:10.933Z,55.37
2022-08-06T07:30:41.282Z,55.43
2022-08-06T07:33:11.404Z,52.92
2022-08-06T07:35:42.550Z,53.48
2022-08-06T07:38:11.340Z,54.93
2022-08-06T07:40:52.881Z,55.02
2022-08-06T07:43:25.336Z,54.44
2022-08-06T07:46:02.077Z,54.15
2022-08-06T07:48:52.534Z,55.78
2022-08-06T07:51:34.283Z,54.68
2022-08-06T07:54:09.340Z,54.48
2022-08-06T07:57:01.642Z,53.38
2022-08-06T07:59:30.498Z,53.04
2022-08-06T08:01:58.739Z,52.16
2022-08-06T08:04:35.153Z,53.20
2022-08-06T08:07:07.646Z,51.37
2022-08-06T08:10:01.926Z,51.09
2022-08-06T08:12:34.789Z,49.01
2022-08-06T08:15:04.102Z,49.44
2022-08-06T08:17:35.002Z,48.84
2022-08-06T08:20:15.494Z,46.81
2022-08-06T08:22:48.631Z,44.92
2022-08-06T08:25:40.435Z,43.86
2022-08-06T08:28:11.863Z,42.96
2022-08-06T08:30:43.427Z,43.01
2022-08-06T08:33:11.090Z,42.33
2022-08-06T08:35:50.054Z,41.70
2022-08-06T08:38:29.470Z,42.64
2022-08-06T08:40:57.251Z,42.88
2022-08-06T08:43:33.284Z,43.37
2022-08-06T08:46:17.294Z,42.84
2022-08-06T08:49:01.235Z,43.08
2022-08-06T08:51:28.168Z,43.76
2022-08-06T08:53:58.320Z,44.31
2022-08-06T08:57:08.501Z,45.38
2022-08-06T08:59:57.793Z,44.63
2022-08-06T09:02:00.648Z,44.44
2022-08-06T09:04:28.145Z,44.24
2022-08-06T09:06:56.391Z,44.24
2022-08-06T09:09:30.158Z,45.25
2022-08-06T09:12:03.142Z,44.76
2022-08-06T09:14:34.210Z,42.75
2022-08-06T09:17:01.973Z,41.68
2022-08-06T09:19:37.826Z,41.51
2022-08-06T09:22:09.171Z,41.10
2022-08-06T09:24:39.174Z,39.12
2022-08-06T09:27:32.575Z,40.10
2022-08-06T09:30:03.777Z,40.71
2022-08-06T09:32:54.914Z,39.22
2022-08-06T09:35:44.272Z,38.53
2022-08-06T09:38:16.346Z,38.54
2022-08-06T09:41:03.317Z,37.72
2022-08-06T09:43:34.396Z,38.24
2022-08-06T09:46:48.558Z,38.08
2022-08-06T09:49:45.764Z,37.64
2022-08-06T09:52:17.879Z,36.73
2022-08-06T09:54:46.404Z,35.96
2022-08-06T09:57:13.043Z,34.56
2022-08-06T09:59:50.046Z,33.64
2022-08-06T10:02:24.109Z,31.32
2022-08-06T10:05:19.237Z,29.70
2022-08-06T10:07:46.802Z,29.45
2022-08-06T10:10:13.744Z,29.32
2022-08-06T10:13:12.085Z,29.05
2022-08-06T10:15:57.622Z,28.46
2022-08-06T10:18:55.016Z,28.07
2022-08-06T10:21:33.330Z,28.93
2022-08-06T10:24:08.290Z,28.64
2022-08-06T10:26:35.213Z,28.63
2022-08-06T10:29:05.321Z,28.31
2022-08-06T10:31:33.791Z,28.78
2022-08-06T10:34:29.670Z,29.06
2022-08-06T10:37:10.648Z,30.74
2022-08-06T10:40:09.925Z,29.88
2022-08-06T10:42:40.157Z,29.61
2022-08-06T10:45:12.916Z,30.79
2022-08-06T10:48:58.494Z,31.25
2022-08-06T10:50:44.624Z,32.38
2022-08-06T10:54:00.076Z,32.03
2022-08-06T10:56:08.944Z,32.29
2022-08-06T10:58:37.357Z,33.49
2022-08-06T11:01:09.508Z,33.49
2022-08-06T11:04:04.178Z,33.01
2022-08-06T11:06:57.691Z,33.26
2022-08-06T11:10:00.235Z,33.14
2022-08-06T11:12:56.403Z,32.92
2022-08-06T11:15:23.657Z,32.20
2022-08-06T11:17:52.516Z,32.65
2022-08-06T11:20:35.000Z,33.56
2022-08-06T11:23:26.279Z,33.62
2022-08-06T11:26:08.832Z,32.08
2022-08-06T11:28:35.373Z,33.23
2022-08-06T11:31:04.847Z,33.61
2022-08-06T11:33:34.038Z,34.13
2022-08-06T11:36:09.737Z,33.72
2022-08-06T11:38:50.844Z,33.68
2022-08-06T11:41:50.862Z,33.29
2022-08-06T11:44:17.068Z,33.37
2022-08-06T11:46:48.532Z,33.45
2022-08-06T11:49:43.838Z,33.61
2022-08-06T11:52:39.577Z,32.78
2022-08-06T11:55:12.346Z,32.30
2022-08-06T11:57:49.419Z,32.29
2022-08-06T12:00:22.241Z,32.22
2022-08-06T12:02:54.422Z,32.46
2022-08-06T12:05:23.411Z,32.31
2022-08-06T12:08:38.838Z,33.32
2022-08-06T12:11:23.804Z,33.44
2022-08-06T12:13:57.605Z,32.69
2022-08-06T12:16:39.509Z,33.27
2022-08-06T12:19:13.518Z,34.00
2022-08-06T12:21:46.101Z,34.32
2022-08-06T12:24:15.906Z,33.97
2022-08-06T12:26:43.422Z,34.18
2022-08-06T12:29:09.958Z,33.82
2022-08-06T12:31:44.222Z,33.22
2022-08-06T12:34:31.465Z,33.70
2022-08-06T12:36:59.091Z,34.10
2022-08-06T12:39:43.319Z,32.19
2022-08-06T12:42:53.224Z,33.27
2022-08-06T12:45:33.049Z,32.78
2022-08-06T12:48:05.128Z,32.21
2022-08-06T12:50:40.785Z,32.59
2022-08-06T12:53:11.537Z,32.47
2022-08-06T12:55:45.010Z,31.50
2022-08-06T12:58:41.518Z,31.61
2022-08-06T13:01:01.800Z,31.87
2022-08-06T13:03:30.376Z,32.64
2022-08-06T13:06:00.344Z,31.63
2022-08-06T13:08:28.630Z,31.48
2022-08-06T13:10:57.635Z,32.47
2022-08-06T13:14:14.411Z,32.17
2022-08-06T13:16:55.080Z,32.11
2022-08-06T13:19:32.971Z,32.29
2022-08-06T13:22:06.431Z,31.36
2022-08-06T13:24:34.412Z,31.39
2022-08-06T13:27:02.855Z,31.80
2022-08-06T13:30:35.630Z,30.85
2022-08-06T13:32:33.127Z,31.12
2022-08-06T13:35:05.421Z,32.17
2022-08-06T13:38:15.220Z,31.32
2022-08-06T13:40:51.546Z,31.50
2022-08-06T13:43:42.673Z,31.62
2022-08-06T13:46:20.300Z,31.95
2022-08-06T13:48:55.275Z,31.75
2022-08-06T13:51:27.795Z,31.25
2022-08-06T13:53:57.553Z,30.97
2022-08-06T13:56:29.146Z,30.52
2022-08-06T13:58:57.606Z,30.39
2022-08-06T14:01:24.245Z,31.08
2022-08-06T14:04:01.933Z,31.52
2022-08-06T14:06:28.908Z,32.10
2022-08-06T14:08:55.345Z,32.50
2022-08-06T14:11:25.742Z,31.12
2022-08-06T14:13:54.821Z,31.53
2022-08-06T14:16:21.478Z,30.39
2022-08-06T14:19:03.469Z,31.26
2022-08-06T14:21:34.622Z,31.61
2022-08-06T14:24:06.707Z,31.19
2022-08-06T14:26:33.531Z,30.60
2022-08-06T14:30:25.678Z,30.13
2022-08-06T14:31:53.507Z,30.80
2022-08-06T14:34:30.028Z,30.71
2022-08-06T14:37:03.390Z,31.66
2022-08-06T14:39:58.270Z,31.19
2022-08-06T14:42:16.791Z,30.60
2022-08-06T14:44:45.951Z,29.55
2022-08-06T14:47:19.941Z,30.27
2022-08-06T14:49:59.146Z,30.37
2022-08-06T14:52:26.160Z,30.29
2022-08-06T14:54:56.134Z,29.95
2022-08-06T14:58:03.948Z,30.56
2022-08-06T15:00:21.445Z,31.28
2022-08-06T15:02:48.399Z,30.84
2022-08-06T15:05:40.779Z,29.49
2022-08-06T15:08:03.042Z,29.41
2022-08-06T15:10:29.935Z,30.83
2022-08-06T15:13:01.592Z,31.53
2022-08-06T15:15:46.419Z,30.51
2022-08-06T15:18:34.901Z,30.18
2022-08-06T15:21:02.182Z,31.20
2022-08-06T15:23:31.117Z,31.99
2022-08-06T15:26:42.199Z,31.75
2022-08-06T15:28:58.247Z,29.93
2022-08-06T15:31:26.321Z,29.62
2022-08-06T15:33:57.090Z,30.18
2022-08-06T15:36:23.881Z,29.02
2022-08-06T15:38:56.724Z,29.19
2022-08-06T15:41:24.345Z,28.90
2022-08-06T15:43:52.482Z,29.67
2022-08-06T15:46:28.215Z,29.60
2022-08-06T15:48:55.984Z,29.65
2022-08-06T15:51:30.167Z,30.02
2022-08-06T15:53:58.803Z,30.16
2022-08-06T15:56:38.672Z,30.71
2022-08-06T15:59:15.208Z,30.60
2022-08-06T16:01:52.512Z,30.27
2022-08-06T16:04:35.340Z,30.60
2022-08-06T16:07:04.561Z,31.13
2022-08-06T16:10:00.858Z,30.72
2022-08-06T16:12:19.980Z,31.49
2022-08-06T16:14:57.400Z,31.29
2022-08-06T16:17:53.258Z,31.42
2022-08-06T16:20:20.479Z,31.26
2022-08-06T16:22:49.128Z,31.74
2022-08-06T16:25:15.543Z,31.94
2022-08-06T16:27:43.102Z,32.00
2022-08-06T16:30:10.659Z,31.97
2022-08-06T16:32:37.505Z,31.73
2022-08-06T16:35:04.143Z,31.74
2022-08-06T16:37:39.803Z,31.80
2022-08-06T16:40:09.001Z,32.33
2022-08-06T16:42:36.880Z,32.08
2022-08-06T16:45:09.874Z,32.39
2022-08-06T16:48:20.808Z,32.47
2022-08-06T16:50:26.689Z,31.90
2022-08-06T16:54:08.229Z,32.92
2022-08-06T16:55:42.761Z,33.23
2022-08-06T16:58:16.866Z,32.95
2022-08-06T17:01:00.364Z,34.05
2022-08-06T17:03:46.271Z,34.03
2022-08-06T17:06:17.673Z,34.42
2022-08-06T17:08:52.804Z,32.62
2022-08-06T17:11:46.662Z,32.83
2022-08-06T17:14:13.214Z,32.48
2022-08-06T17:16:40.955Z,33.21
2022-08-06T17:21:59.559Z,33.25
2022-08-06T17:24:33.114Z,32.52
2022-08-06T17:29:52.666Z,31.75
2022-08-06T17:32:32.838Z,31.58
2022-08-06T17:35:10.561Z,32.23
2022-08-06T17:37:43.371Z,32.58
2022-08-06T17:43:13.111Z,32.03
2022-08-06T17:45:52.596Z,31.93
2022-08-06T17:48:27.553Z,31.95
2022-08-06T17:50:57.637Z,32.49
2022-08-06T17:53:24.272Z,32.44
2022-08-06T17:56:11.062Z,32.60
2022-08-06T17:58:52.914Z,33.27
2022-08-06T18:01:44.265Z,33.01
2022-08-06T18:04:21.282Z,32.73
2022-08-06T18:06:49.763Z,33.01
2022-08-06T18:10:12.111Z,34.50
2022-08-06T18:12:04.290Z,35.78
2022-08-06T18:14:32.526Z,34.32
2022-08-06T18:17:00.104Z,33.67
2022-08-06T18:19:34.257Z,33.17
2022-08-06T18:22:12.020Z,34.08
2022-08-06T18:24:50.729Z,34.16
2022-08-06T18:27:55.186Z,34.84
2022-08-06T18:30:05.184Z,35.14
2022-08-06T18:32:32.724Z,35.57
2022-08-06T18:35:04.395Z,36.08
2022-08-06T18:38:01.297Z,35.31
2022-08-06T18:40:39.392Z,35.50
2022-08-06T18:43:06.203Z,36.22
2022-08-06T18:45:36.692Z,36.40
2022-08-06T18:48:05.313Z,35.87
2022-08-06T18:50:33.275Z,36.26
2022-08-06T18:52:59.975Z,36.52
2022-08-06T18:55:53.998Z,36.90
2022-08-06T18:58:16.732Z,36.90
2022-08-06T19:00:52.726Z,36.82
2022-08-06T19:03:19.587Z,38.05
2022-08-06T19:05:51.472Z,38.81
2022-08-06T19:08:29.769Z,38.31
2022-08-06T19:10:57.211Z,38.65
2022-08-06T19:13:24.188Z,39.27
2022-08-06T19:16:10.638Z,39.65
2022-08-06T19:18:37.172Z,39.97
2022-08-06T19:21:16.738Z,40.09
2022-08-06T19:24:02.310Z,39.90
2022-08-06T19:26:30.306Z,39.96
2022-08-06T19:28:57.079Z,40.16
2022-08-06T19:31:42.713Z,40.04
2022-08-06T19:34:11.141Z,40.30
2022-08-06T19:36:41.575Z,40.43
2022-08-06T19:39:53.950Z,40.80
2022-08-06T19:42:01.264Z,41.03
2022-08-06T19:44:35.912Z,41.14
2022-08-06T19:47:06.141Z,41.25
2022-08-06T19:49:42.311Z,41.60
2022-08-06T19:52:09.294Z,42.91
2022-08-06T19:54:37.175Z,42.20
2022-08-06T19:57:09.316Z,42.46
2022-08-06T20:00:52.916Z,43.05
2022-08-06T20:02:29.101Z,43.86
2022-08-06T20:04:56.504Z,44.14
2022-08-06T20:07:25.682Z,43.54
2022-08-06T20:10:00.421Z,43.96
2022-08-06T20:12:34.764Z,43.68
2022-08-06T20:15:06.561Z,44.07
2022-08-06T20:17:45.992Z,45.23
2022-08-06T20:23:14.554Z,44.93
2022-08-06T20:26:34.125Z,45.21
2022-08-06T20:29:09.988Z,45.98
2022-08-06T20:31:21.865Z,46.50
2022-08-06T20:33:58.015Z,46.64
2022-08-06T20:36:28.176Z,46.10
2022-08-06T20:38:54.887Z,46.16
2022-08-06T20:41:58.884Z,46.53
2022-08-06T20:44:08.502Z,46.55
2022-08-06T20:49:48.210Z,46.87
2022-08-06T20:52:17.112Z,47.69
2022-08-06T20:54:51.480Z,48.03
2022-08-06T20:57:19.260Z,48.53
2022-08-06T20:59:50.623Z,48.66
2022-08-06T21:02:25.634Z,48.75
2022-08-06T21:05:14.080Z,48.71
2022-08-06T21:07:56.568Z,48.93
2022-08-06T21:10:25.034Z,49.51
2022-08-06T21:13:01.141Z,49.61
2022-08-06T21:15:54.574Z,49.80
2022-08-06T21:18:21.051Z,49.02
2022-08-06T21:20:50.939Z,49.07
2022-08-06T21:23:21.326Z,50.17
2022-08-06T21:25:53.338Z,50.45
2022-08-06T21:28:25.895Z,50.15
2022-08-06T21:30:53.331Z,50.48
2022-08-06T21:33:20.327Z,50.51
2022-08-06T21:35:50.442Z,50.98
2022-08-06T21:38:24.021Z,51.50
2022-08-06T21:40:52.084Z,51.48
2022-08-06T21:43:21.574Z,51.87
2022-08-06T21:45:50.309Z,52.69
2022-08-06T21:48:31.962Z,52.52
2022-08-06T21:50:59.709Z,52.29
2022-08-06T21:53:52.669Z,52.30
2022-08-06T21:56:39.421Z,52.59
2022-08-06T21:59:01.026Z,52.75
2022-08-06T22:02:09.748Z,52.90
2022-08-06T22:04:39.003Z,52.86
2022-08-06T22:07:01.116Z,53.03
2022-08-06T22:09:38.674Z,53.49
2022-08-06T22:12:40.368Z,52.92
2022-08-06T22:14:58.438Z,53.08
2022-08-06T22:17:59.578Z,53.65
2022-08-06T22:20:21.528Z,53.82
2022-08-06T22:22:53.115Z,53.81
2022-08-06T22:25:20.677Z,53.53
2022-08-06T22:27:54.550Z,52.88
2022-08-06T22:30:24.352Z,52.94
2022-08-06T22:32:51.284Z,54.02
2022-08-06T22:35:17.793Z,53.81
2022-08-06T22:38:16.871Z,53.87
2022-08-06T22:40:41.271Z,54.79
2022-08-06T22:43:17.225Z,55.40
2022-08-06T22:46:00.102Z,55.56
2022-08-06T22:48:36.593Z,56.10
2022-08-06T22:51:10.613Z,56.05
2022-08-06T22:54:30.404Z,56.42
2022-08-06T22:56:28.808Z,56.28
2022-08-06T22:59:18.658Z,56.06
2022-08-06T23:02:03.700Z,56.38
2022-08-06T23:04:30.365Z,56.43
2022-08-06T23:06:57.111Z,55.58
2022-08-06T23:09:23.450Z,56.29
2022-08-06T23:11:59.343Z,56.46
2022-08-06T23:14:27.303Z,56.74
2022-08-06T23:16:58.926Z,56.61
2022-08-06T23:19:25.938Z,56.84
2022-08-06T23:22:04.807Z,57.02
2022-08-06T23:24:36.029Z,56.64
2022-08-06T23:27:07.521Z,56.61
2022-08-06T23:30:09.530Z,56.67
2022-08-06T23:32:31.291Z,56.63
2022-08-06T23:34:58.963Z,56.87
2022-08-06T23:37:26.524Z,57.51
2022-08-06T23:39:58.497Z,57.74
2022-08-06T23:42:42.541Z,58.45
2022-08-06T23:45:10.029Z,58.16
2022-08-06T23:47:52.091Z,59.00
2022-08-06T23:50:26.241Z,59.03
2022-08-06T23:53:06.368Z,58.84
2022-08-06T23:55:37.490Z,57.63
2022-08-06T23:58:22.961Z,57.06
